createdAt,value
2022-11-19T00:02:12.549Z,35.67
2022-11-19T00:04:41.150Z,37.45
2022-11-19T00:07:10.718Z,35.72
2022-11-19T00:09:38.770Z,39.40
2022-11-19T00:12:24.931Z,37.17
2022-11-19T00:14:53.131Z,36.28
2022-11-19T00:17:22.464Z,35.20
2022-11-19T00:19:50.819Z,31.00
2022-11-19T00:22:20.507Z,31.35
2022-11-19T00:24:49.086Z,33.33
2022-11-19T00:27:18.382Z,37.38
2022-11-19T00:29:46.582Z,29.60
2022-11-19T00:32:15.667Z,31.40
2022-11-19T00:34:43.831Z,31.40
2022-11-19T00:37:12.210Z,30.77
2022-11-19T00:39:41.645Z,32.25
2022-11-19T00:42:11.448Z,30.25
2022-11-19T00:44:39.503Z,30.67
2022-11-19T00:47:10.363Z,30.10
2022-11-19T00:49:40.837Z,32.20
2022-11-19T00:52:11.743Z,29.63
2022-11-19T00:54:45.345Z,34.00
2022-11-19T00:57:13.886Z,30.75
2022-11-19T00:59:42.462Z,31.13
2022-11-19T01:02:10.399Z,32.75
2022-11-19T01:04:38.787Z,32.85
2022-11-19T01:07:06.781Z,31.63
2022-11-19T01:09:35.496Z,33.35
2022-11-19T01:12:05.262Z,27.15
2022-11-19T01:14:33.272Z,32.90
2022-11-19T01:17:01.272Z,30.65
2022-11-19T01:19:29.900Z,29.95
2022-11-19T01:21:58.353Z,31.08
2022-11-19T01:24:26.351Z,31.55
2022-11-19T01:26:54.725Z,25.25
2022-11-19T01:29:26.838Z,32.97
2022-11-19T01:31:54.781Z,32.10
2022-11-19T01:34:24.445Z,30.05
2022-11-19T01:36:53.796Z,30.27
2022-11-19T01:39:22.023Z,30.30
2022-11-19T01:41:51.281Z,30.27
2022-11-19T01:45:00.578Z,27.45
2022-11-19T01:47:28.941Z,26.95
2022-11-19T01:49:58.343Z,25.42
2022-11-19T01:52:26.289Z,32.25
2022-11-19T01:54:55.455Z,29.77
2022-11-19T01:57:23.829Z,28.88
2022-11-19T01:59:52.825Z,31.02
2022-11-19T02:02:24.692Z,32.17
2022-11-19T02:04:59.303Z,26.75
2022-11-19T02:07:29.464Z,32.25
2022-11-19T02:09:58.740Z,28.88
2022-11-19T02:12:35.936Z,29.08
2022-11-19T02:15:11.986Z,31.02
2022-11-19T02:17:51.038Z,29.45
2022-11-19T02:20:53.457Z,29.20
2022-11-19T02:23:44.828Z,32.10
2022-11-19T02:26:29.919Z,27.98
2022-11-19T02:29:08.735Z,29.00
2022-11-19T02:31:40.802Z,31.48
2022-11-19T02:34:13.056Z,29.65
2022-11-19T02:36:47.654Z,27.02
2022-11-19T02:39:20.170Z,22.98
2022-11-19T02:41:54.821Z,28.80
2022-11-19T02:44:45.662Z,29.35
2022-11-19T02:47:18.584Z,28.08
2022-11-19T02:49:46.785Z,28.42
2022-11-19T02:52:15.643Z,28.33
2022-11-19T02:54:43.693Z,24.55
2022-11-19T02:57:13.740Z,27.10
2022-11-19T03:00:01.474Z,28.17
2022-11-19T03:02:51.629Z,28.80
2022-11-19T03:05:22.055Z,22.88
2022-11-19T03:07:50.484Z,28.35
2022-11-19T03:10:22.474Z,24.85
2022-11-19T03:12:53.465Z,28.00
2022-11-19T03:15:46.549Z,23.73
2022-11-19T03:18:19.216Z,27.92
2022-11-19T03:20:50.641Z,28.00
2022-11-19T03:23:23.334Z,27.60
2022-11-19T03:25:54.911Z,29.25
2022-11-19T03:28:25.593Z,26.48
2022-11-19T03:30:55.207Z,31.80
2022-11-19T03:33:25.999Z,26.38
2022-11-19T03:35:59.373Z,27.33
2022-11-19T03:38:30.979Z,29.15
2022-11-19T03:40:59.165Z,26.40
2022-11-19T03:43:30.514Z,24.73
2022-11-19T03:46:02.920Z,27.13
2022-11-19T03:48:33.003Z,33.25
2022-11-19T03:51:07.659Z,26.90
2022-11-19T03:53:36.008Z,22.48
2022-11-19T03:56:07.060Z,24.02
2022-11-19T03:58:39.935Z,23.83
2022-11-19T04:01:09.299Z,31.23
2022-11-19T04:03:39.272Z,25.08
2022-11-19T04:06:08.365Z,28.10
2022-11-19T04:08:38.786Z,28.10
2022-11-19T04:13:36.571Z,25.45
2022-11-19T04:16:06.487Z,21.85
2022-11-19T04:18:35.836Z,23.95
2022-11-19T04:21:05.466Z,25.80
2022-11-19T04:23:33.618Z,25.42
2022-11-19T04:26:01.659Z,25.25
2022-11-19T04:28:29.575Z,23.05
2022-11-19T04:30:57.773Z,26.65
2022-11-19T04:33:27.030Z,24.48
2022-11-19T04:35:55.127Z,24.85
2022-11-19T04:38:25.653Z,31.38
2022-11-19T04:40:53.700Z,28.80
2022-11-19T04:43:22.191Z,27.08
2022-11-19T04:45:50.705Z,24.95
2022-11-19T04:48:20.193Z,24.98
2022-11-19T04:50:48.580Z,27.90
2022-11-19T04:53:16.958Z,24.35
2022-11-19T04:55:46.758Z,23.65
2022-11-19T04:58:15.429Z,26.15
2022-11-19T05:00:44.785Z,25.48
2022-11-19T05:03:13.049Z,28.98
2022-11-19T05:05:42.398Z,24.67
2022-11-19T05:08:10.887Z,20.75
2022-11-19T05:10:40.047Z,23.55
2022-11-19T05:13:10.045Z,22.30
2022-11-19T05:15:38.014Z,24.15
2022-11-19T05:18:06.226Z,24.67
2022-11-19T05:20:34.296Z,24.27
2022-11-19T05:23:02.584Z,23.33
2022-11-19T05:25:30.674Z,22.77
2022-11-19T05:27:59.326Z,23.75
2022-11-19T05:30:28.908Z,29.45
2022-11-19T05:32:57.567Z,25.15
2022-11-19T05:35:25.599Z,29.70
2022-11-19T05:37:54.650Z,27.00
2022-11-19T05:40:23.093Z,24.13
2022-11-19T05:42:51.323Z,24.88
2022-11-19T05:45:19.281Z,36.17
2022-11-19T05:47:49.011Z,28.52
2022-11-19T05:50:20.125Z,22.92
2022-11-19T05:52:50.777Z,23.88
2022-11-19T05:55:20.820Z,25.08
2022-11-19T05:57:51.534Z,28.48
2022-11-19T06:00:21.982Z,22.88
2022-11-19T06:02:51.501Z,26.40
2022-11-19T06:05:20.582Z,27.52
2022-11-19T06:07:48.595Z,21.65
2022-11-19T06:10:18.821Z,20.33
2022-11-19T06:12:48.361Z,24.60
2022-11-19T06:15:20.332Z,23.50
2022-11-19T06:17:49.658Z,22.33
2022-11-19T06:20:19.654Z,27.05
2022-11-19T06:22:47.710Z,21.38
2022-11-19T06:25:17.333Z,23.00
2022-11-19T06:27:46.249Z,24.85
2022-11-19T06:30:16.100Z,21.67
2022-11-19T06:32:44.389Z,26.45
2022-11-19T06:35:14.491Z,22.40
2022-11-19T06:37:44.122Z,22.67
2022-11-19T06:40:14.850Z,21.77
2022-11-19T06:42:46.116Z,26.75
2022-11-19T06:45:16.913Z,22.58
2022-11-19T06:47:51.309Z,17.90
2022-11-19T06:50:19.797Z,24.13
2022-11-19T06:52:51.408Z,21.63
2022-11-19T06:57:48.946Z,21.77
2022-11-19T07:00:18.316Z,18.60
2022-11-19T07:02:49.047Z,23.30
2022-11-19T07:05:16.999Z,23.83
2022-11-19T07:07:47.862Z,25.52
2022-11-19T07:10:17.759Z,23.20
2022-11-19T07:12:47.548Z,23.60
2022-11-19T07:15:18.881Z,26.40
2022-11-19T07:17:46.900Z,22.10
2022-11-19T07:20:14.922Z,27.05
2022-11-19T07:22:44.408Z,25.08
2022-11-19T07:25:13.899Z,21.17
2022-11-19T07:27:49.431Z,28.65
2022-11-19T07:30:18.554Z,24.50
2022-11-19T07:32:47.315Z,21.45
2022-11-19T07:35:16.062Z,25.58
2022-11-19T07:37:44.594Z,22.42
2022-11-19T07:40:14.945Z,25.35
2022-11-19T07:42:50.720Z,20.85
2022-11-19T07:45:20.868Z,21.17
2022-11-19T07:47:49.398Z,24.40
2022-11-19T07:50:19.311Z,23.25
2022-11-19T07:52:47.685Z,23.38
2022-11-19T07:55:16.171Z,22.92
2022-11-19T07:57:45.659Z,20.92
2022-11-19T08:00:15.507Z,29.83
2022-11-19T08:02:43.511Z,26.52
2022-11-19T08:05:12.144Z,24.48
2022-11-19T08:07:40.359Z,24.42
2022-11-19T08:10:11.059Z,25.98
2022-11-19T08:12:40.073Z,25.63
2022-11-19T08:15:15.394Z,23.63
2022-11-19T08:18:01.163Z,24.92
2022-11-19T08:20:29.348Z,23.45
2022-11-19T08:22:58.878Z,26.98
2022-11-19T08:25:27.274Z,25.20
2022-11-19T08:27:55.451Z,31.15
2022-11-19T08:30:24.996Z,22.50
2022-11-19T08:32:53.614Z,23.00
2022-11-19T08:35:22.096Z,20.95
2022-11-19T08:37:54.002Z,22.15
2022-11-19T08:40:23.619Z,24.42
2022-11-19T08:43:01.542Z,20.30
2022-11-19T08:45:32.783Z,21.60
2022-11-19T08:48:04.548Z,18.60
2022-11-19T08:50:33.621Z,19.92
2022-11-19T08:53:03.700Z,24.15
2022-11-19T08:55:34.377Z,22.33
2022-11-19T08:58:03.421Z,18.75
2022-11-19T09:00:34.625Z,22.50
2022-11-19T09:03:03.065Z,26.57
2022-11-19T09:05:31.750Z,20.52
2022-11-19T09:08:01.880Z,21.33
2022-11-19T09:10:31.643Z,23.85
2022-11-19T09:13:00.960Z,21.60
2022-11-19T09:15:29.639Z,28.27
2022-11-19T09:18:02.351Z,23.20
2022-11-19T09:20:30.367Z,21.50
2022-11-19T09:23:00.399Z,21.05
2022-11-19T09:25:29.297Z,19.92
2022-11-19T09:27:57.873Z,20.02
2022-11-19T09:30:26.125Z,18.58
2022-11-19T09:32:56.507Z,17.48
2022-11-19T09:35:26.096Z,17.23
2022-11-19T09:37:54.437Z,16.30
2022-11-19T09:40:23.692Z,17.75
2022-11-19T09:43:01.491Z,16.45
2022-11-19T09:45:41.761Z,16.83
2022-11-19T09:48:19.361Z,15.90
2022-11-19T09:50:54.363Z,18.85
2022-11-19T09:53:23.807Z,16.60
2022-11-19T09:56:01.347Z,15.35
2022-11-19T09:58:35.735Z,15.57
2022-11-19T10:01:06.300Z,16.02
2022-11-19T10:03:40.359Z,10.52
2022-11-19T10:06:30.479Z,13.27
2022-11-19T10:09:10.410Z,13.80
2022-11-19T10:11:48.632Z,14.43
2022-11-19T10:14:29.897Z,16.40
2022-11-19T10:17:03.670Z,14.27
2022-11-19T10:19:42.099Z,11.77
2022-11-19T10:22:18.940Z,15.30
2022-11-19T10:24:52.958Z,13.73
2022-11-19T10:27:25.852Z,14.70
2022-11-19T10:29:55.973Z,14.13
2022-11-19T10:32:33.500Z,17.75
2022-11-19T10:35:05.058Z,11.98
2022-11-19T10:37:46.444Z,15.75
2022-11-19T10:40:17.343Z,14.32
2022-11-19T10:42:54.301Z,14.65
2022-11-19T10:45:24.283Z,11.38
2022-11-19T10:47:56.575Z,12.38
2022-11-19T10:50:25.789Z,10.88
2022-11-19T10:52:57.284Z,11.93
2022-11-19T10:55:29.604Z,10.02
2022-11-19T10:58:07.494Z,10.00
2022-11-19T11:00:36.850Z,10.45
2022-11-19T11:03:09.621Z,11.23
2022-11-19T11:05:55.509Z,8.05
2022-11-19T11:08:25.380Z,9.52
2022-11-19T11:10:54.508Z,8.15
2022-11-19T11:13:47.499Z,8.90
2022-11-19T11:16:19.297Z,9.88
2022-11-19T11:18:47.982Z,9.85
2022-11-19T11:21:30.906Z,9.18
2022-11-19T11:24:02.641Z,8.45
2022-11-19T11:26:33.760Z,10.43
2022-11-19T11:29:08.875Z,11.05
2022-11-19T11:31:40.248Z,9.05
2022-11-19T11:34:15.908Z,8.88
2022-11-19T11:36:47.277Z,9.85
2022-11-19T11:39:27.639Z,11.07
2022-11-19T11:42:16.016Z,8.82
2022-11-19T11:44:52.744Z,8.43
2022-11-19T11:47:22.447Z,8.30
2022-11-19T11:50:01.208Z,8.90
2022-11-19T11:52:32.573Z,9.38
2022-11-19T11:55:04.453Z,8.13
2022-11-19T11:57:36.744Z,8.95
2022-11-19T12:02:37.015Z,8.68
2022-11-19T12:05:07.451Z,7.93
2022-11-19T12:08:06.309Z,10.23
2022-11-19T12:10:52.647Z,9.35
2022-11-19T12:13:51.666Z,10.93
2022-11-19T12:16:30.107Z,11.07
2022-11-19T12:19:11.884Z,11.15
2022-11-19T12:21:50.161Z,9.65
2022-11-19T12:24:30.505Z,8.38
2022-11-19T12:27:08.266Z,8.43
2022-11-19T12:29:42.624Z,8.27
2022-11-19T12:32:25.310Z,9.43
2022-11-19T12:35:10.898Z,8.32
2022-11-19T12:37:53.237Z,7.88
2022-11-19T12:43:31.638Z,8.40
2022-11-19T12:46:10.586Z,8.40
2022-11-19T12:48:47.606Z,9.38
2022-11-19T12:51:24.262Z,7.13
2022-11-19T12:54:06.932Z,9.75
2022-11-19T12:59:45.071Z,6.55
2022-11-19T13:02:17.958Z,10.30
2022-11-19T13:04:52.610Z,6.40
2022-11-19T13:07:23.133Z,7.85
2022-11-19T13:09:53.403Z,6.90
2022-11-19T13:12:24.300Z,12.63
2022-11-19T13:15:00.283Z,7.97
2022-11-19T13:17:31.334Z,9.82
2022-11-19T13:20:04.720Z,6.40
2022-11-19T13:22:36.407Z,10.30
2022-11-19T13:25:18.815Z,7.97
2022-11-19T13:30:29.170Z,7.32
2022-11-19T13:33:06.746Z,8.68
2022-11-19T13:35:39.497Z,8.05
2022-11-19T13:38:16.280Z,8.23
2022-11-19T13:40:49.099Z,9.95
2022-11-19T13:43:36.685Z,8.75
2022-11-19T13:46:16.441Z,10.52
2022-11-19T13:48:49.442Z,12.07
2022-11-19T13:51:28.062Z,7.53
2022-11-19T13:54:02.694Z,7.80
2022-11-19T13:56:43.399Z,9.23
2022-11-19T13:59:26.279Z,8.88
2022-11-19T14:02:03.340Z,10.25
2022-11-19T14:04:58.396Z,11.32
2022-11-19T14:07:44.525Z,10.15
2022-11-19T14:10:18.534Z,11.93
2022-11-19T14:13:04.646Z,11.60
2022-11-19T14:16:01.894Z,9.77
2022-11-19T14:18:54.547Z,10.02
2022-11-19T14:22:01.600Z,9.77
2022-11-19T14:25:10.149Z,9.23
2022-11-19T14:27:40.006Z,11.82
2022-11-19T14:30:10.904Z,10.38
2022-11-19T14:32:47.563Z,9.73
2022-11-19T14:35:42.912Z,8.85
2022-11-19T14:38:34.550Z,11.68
2022-11-19T14:41:23.362Z,8.93
2022-11-19T14:44:10.671Z,8.00
2022-11-19T14:46:44.563Z,8.95
2022-11-19T14:49:42.382Z,10.93
2022-11-19T14:52:22.200Z,8.88
2022-11-19T14:54:55.472Z,10.10
2022-11-19T14:57:29.810Z,9.10
2022-11-19T15:00:00.237Z,9.52
2022-11-19T15:02:32.261Z,9.02
2022-11-19T15:05:05.461Z,9.65
2022-11-19T15:07:42.557Z,9.38
2022-11-19T15:10:30.562Z,8.43
2022-11-19T15:13:21.936Z,9.65
2022-11-19T15:15:53.019Z,12.07
2022-11-19T15:18:58.595Z,11.13
2022-11-19T15:22:08.605Z,10.70
2022-11-19T15:24:51.163Z,9.48
2022-11-19T15:27:27.838Z,8.38
2022-11-19T15:30:14.028Z,12.68
2022-11-19T15:33:03.643Z,8.07
2022-11-19T15:35:49.820Z,10.43
2022-11-19T15:38:29.547Z,9.57
2022-11-19T15:41:01.977Z,10.60
2022-11-19T15:43:32.432Z,10.75
2022-11-19T15:46:07.878Z,9.55
2022-11-19T15:48:40.794Z,10.52
2022-11-19T15:51:13.103Z,8.48
2022-11-19T15:53:58.438Z,13.18
2022-11-19T15:56:30.985Z,13.10
2022-11-19T15:59:01.595Z,11.55
2022-11-19T16:01:32.275Z,9.25
2022-11-19T16:04:04.923Z,11.40
2022-11-19T16:06:36.330Z,10.45
2022-11-19T16:09:08.030Z,10.35
2022-11-19T16:11:58.922Z,13.75
2022-11-19T16:14:47.338Z,14.23
2022-11-19T16:17:39.724Z,12.23
2022-11-19T16:20:21.808Z,12.48
2022-11-19T16:22:56.784Z,11.45
2022-11-19T16:25:37.381Z,13.85
2022-11-19T16:28:14.001Z,12.52
2022-11-19T16:30:50.592Z,14.15
2022-11-19T16:33:20.949Z,10.63
2022-11-19T16:35:52.867Z,11.57
2022-11-19T16:38:30.814Z,12.88
2022-11-19T16:41:17.839Z,11.48
2022-11-19T16:43:49.431Z,11.35
2022-11-19T16:46:20.886Z,13.30
2022-11-19T16:48:59.055Z,14.95
2022-11-19T16:51:39.947Z,13.05
2022-11-19T16:54:10.761Z,16.73
2022-11-19T16:56:42.300Z,17.10
2022-11-19T16:59:18.745Z,15.73
2022-11-19T17:01:53.516Z,20.67
2022-11-19T17:04:22.697Z,20.55
2022-11-19T17:06:52.051Z,21.85
2022-11-19T17:09:37.195Z,17.23
2022-11-19T17:12:23.037Z,21.05
2022-11-19T17:14:55.387Z,14.50
2022-11-19T17:17:40.284Z,18.30
2022-11-19T17:20:48.313Z,14.88
2022-11-19T17:23:19.402Z,12.05
2022-11-19T17:25:49.489Z,19.50
2022-11-19T17:28:21.601Z,15.38
2022-11-19T17:33:23.658Z,17.73
2022-11-19T17:35:52.468Z,16.77
2022-11-19T17:38:23.947Z,16.58
2022-11-19T17:40:53.774Z,16.63
2022-11-19T17:43:42.731Z,17.58
2022-11-19T17:46:12.959Z,22.75
2022-11-19T17:48:47.196Z,20.83
2022-11-19T17:51:17.325Z,19.20
2022-11-19T17:53:46.018Z,19.55
2022-11-19T17:56:19.927Z,20.08
2022-11-19T17:58:48.590Z,22.10
2022-11-19T18:01:19.861Z,20.75
2022-11-19T18:03:48.752Z,17.75
2022-11-19T18:06:18.253Z,20.50
2022-11-19T18:08:48.104Z,19.40
2022-11-19T18:11:18.788Z,19.10
2022-11-19T18:13:54.413Z,20.63
2022-11-19T18:16:26.717Z,25.00
2022-11-19T18:21:28.182Z,21.02
2022-11-19T18:23:57.742Z,18.60
2022-11-19T18:26:27.182Z,19.35
2022-11-19T18:28:56.567Z,21.15
2022-11-19T18:31:28.056Z,22.25
2022-11-19T18:33:57.390Z,20.80
2022-11-19T18:36:27.137Z,18.75
2022-11-19T18:38:57.647Z,26.13
2022-11-19T18:41:26.910Z,28.83
2022-11-19T18:44:13.061Z,28.40
2022-11-19T18:46:42.695Z,29.13
2022-11-19T18:49:15.575Z,24.70
2022-11-19T18:51:44.475Z,22.25
2022-11-19T18:54:12.895Z,21.05
2022-11-19T18:56:42.140Z,20.73
2022-11-19T18:59:12.251Z,25.40
2022-11-19T19:01:45.498Z,22.95
2022-11-19T19:04:15.267Z,20.13
2022-11-19T19:06:44.504Z,22.90
2022-11-19T19:09:19.496Z,21.38
2022-11-19T19:12:12.291Z,27.35
2022-11-19T19:14:41.724Z,22.30
2022-11-19T19:17:12.896Z,22.85
2022-11-19T19:19:43.288Z,19.13
2022-11-19T19:22:14.887Z,20.67
2022-11-19T19:24:47.120Z,22.08
2022-11-19T19:27:16.819Z,21.05
2022-11-19T19:29:47.876Z,22.42
2022-11-19T19:32:18.364Z,23.10
2022-11-19T19:34:46.579Z,18.13
2022-11-19T19:37:15.363Z,22.77
2022-11-19T19:39:43.638Z,18.15
2022-11-19T19:42:13.303Z,17.35
2022-11-19T19:44:42.076Z,15.48
2022-11-19T19:47:10.552Z,19.30
2022-11-19T19:49:39.811Z,16.23
2022-11-19T19:52:08.102Z,16.98
2022-11-19T19:54:37.234Z,19.13
2022-11-19T19:57:07.856Z,18.45
2022-11-19T19:59:36.006Z,19.50
2022-11-19T20:02:04.146Z,21.17
2022-11-19T20:04:34.059Z,19.00
2022-11-19T20:07:05.659Z,18.40
2022-11-19T20:09:37.180Z,17.35
2022-11-19T20:12:05.676Z,17.48
2022-11-19T20:14:36.245Z,17.38
2022-11-19T20:17:04.757Z,19.60
2022-11-19T20:19:33.684Z,18.77
2022-11-19T20:22:04.041Z,19.48
2022-11-19T20:24:34.748Z,17.27
2022-11-19T20:27:03.293Z,17.10
2022-11-19T20:29:31.722Z,16.92
2022-11-19T20:32:01.355Z,16.10
2022-11-19T20:34:29.524Z,18.27
2022-11-19T20:36:57.841Z,16.90
2022-11-19T20:39:27.392Z,17.23
2022-11-19T20:42:13.097Z,17.65
2022-11-19T20:44:42.343Z,20.92
2022-11-19T20:47:10.322Z,20.88
2022-11-19T20:49:40.406Z,22.45
2022-11-19T20:52:10.769Z,18.23
2022-11-19T20:54:41.856Z,19.80
2022-11-19T20:57:10.531Z,21.50
2022-11-19T20:59:38.619Z,20.60
2022-11-19T21:02:07.325Z,23.35
2022-11-19T21:04:37.302Z,20.23
2022-11-19T21:07:08.288Z,18.15
2022-11-19T21:09:37.744Z,19.80
2022-11-19T21:12:07.387Z,21.55
2022-11-19T21:14:36.047Z,23.10
2022-11-19T21:17:04.280Z,21.13
2022-11-19T21:19:32.569Z,23.50
2022-11-19T21:22:01.292Z,23.02
2022-11-19T21:24:32.699Z,23.50
2022-11-19T21:27:00.830Z,18.70
2022-11-19T21:29:33.242Z,18.70
2022-11-19T21:32:02.193Z,21.65
2022-11-19T21:34:31.532Z,18.25
2022-11-19T21:37:00.128Z,19.15
2022-11-19T21:39:28.341Z,20.10
2022-11-19T21:41:57.020Z,20.48
2022-11-19T21:44:26.381Z,22.10
2022-11-19T21:46:57.850Z,21.17
2022-11-19T21:49:26.233Z,20.58
2022-11-19T21:51:55.485Z,20.58
2022-11-19T21:54:26.313Z,23.42
2022-11-19T21:56:55.269Z,22.58
2022-11-19T21:59:23.433Z,21.45
2022-11-19T22:01:54.883Z,21.13
2022-11-19T22:04:24.814Z,23.10
2022-11-19T22:06:53.633Z,22.58
2022-11-19T22:09:23.609Z,20.98
2022-11-19T22:11:51.578Z,21.90
2022-11-19T22:14:19.861Z,21.23
2022-11-19T22:16:48.200Z,23.75
2022-11-19T22:19:16.445Z,20.63
2022-11-19T22:21:46.666Z,20.55
2022-11-19T22:24:16.432Z,21.48
2022-11-19T22:26:44.795Z,19.23
2022-11-19T22:29:13.084Z,19.98
2022-11-19T22:31:41.568Z,22.80
2022-11-19T22:34:12.212Z,20.58
2022-11-19T22:36:43.646Z,19.52
2022-11-19T22:39:15.830Z,22.25
2022-11-19T22:41:45.006Z,24.17
2022-11-19T22:44:15.531Z,24.00
2022-11-19T22:46:46.528Z,20.35
2022-11-19T22:49:16.151Z,20.90
2022-11-19T22:51:46.155Z,24.48
2022-11-19T22:54:16.065Z,21.88
2022-11-19T22:56:45.997Z,24.50
2022-11-19T22:59:14.461Z,24.33
2022-11-19T23:01:43.703Z,21.42
2022-11-19T23:04:15.517Z,23.20
2022-11-19T23:06:45.374Z,22.88
2022-11-19T23:09:15.525Z,21.05
2022-11-19T23:12:00.875Z,24.17
2022-11-19T23:14:33.411Z,20.77
2022-11-19T23:17:05.052Z,24.27
2022-11-19T23:19:36.023Z,23.48
2022-11-19T23:22:05.600Z,22.13
2022-11-19T23:24:35.012Z,23.52
2022-11-19T23:27:03.410Z,21.65
2022-11-19T23:29:31.671Z,20.17
2022-11-19T23:31:59.883Z,20.98
2022-11-19T23:34:31.984Z,18.90
2022-11-19T23:37:03.615Z,24.27
2022-11-19T23:39:31.746Z,22.13
2022-11-19T23:42:01.003Z,21.50
2022-11-19T23:44:32.963Z,17.23
2022-11-19T23:47:01.210Z,21.48
2022-11-19T23:49:29.893Z,23.35
2022-11-19T23:51:59.418Z,23.25
2022-11-19T23:54:31.551Z,23.08
2022-11-19T23:57:05.841Z,21.02
2022-11-19T23:59:34.856Z,23.20
